Time;durP1;ratioP1;P1;durP2;ratioP2;P2;SDS_P1;SDS_P2;PMS_P1;PMS_P2;Temp;Humidity;BMP_temperature;BMP_pressure;BME280_temperature;BME280_humidity;BME280_pressure;Samples;Min_cycle;Max_cycle;Signal;HPM_P1;HPM_P2
2022/02/22 00:01:20;;;;;;;14.93;2.00;;;;;;;;;;5018635;28;20051;-68
2022/02/22 00:03:46;;;;;;;18.47;2.90;;;;;;;;;;5011032;28;20049;-68
2022/02/22 00:06:11;;;;;;;19.57;2.97;;;;;;;;;;5002839;28;20034;-68
2022/02/22 00:08:36;;;;;;;13.93;2.90;;;;;;;;;;5014926;28;20025;-68
2022/02/22 00:11:01;;;;;;;21.50;3.60;;;;;;;;;;5012996;28;20025;-68
2022/02/22 00:13:27;;;;;;;18.53;2.57;;;;;;;;;;5015700;28;20132;-68
2022/02/22 00:15:53;;;;;;;17.53;2.70;;;;;;;;;;5014085;28;20045;-68
2022/02/22 00:18:18;;;;;;;11.97;2.97;;;;;;;;;;5009682;28;20025;-68
2022/02/22 00:20:44;;;;;;;10.50;3.10;;;;;;;;;;5009125;28;20029;-68
2022/02/22 00:23:09;;;;;;;17.47;2.77;;;;;;;;;;5009550;28;20575;-68
2022/02/22 00:25:34;;;;;;;19.07;2.90;;;;;;;;;;5009424;28;21746;-68
2022/02/22 00:28:00;;;;;;;8.73;2.23;;;;;;;;;;5006608;28;20034;-68
2022/02/22 00:30:25;;;;;;;16.13;3.53;;;;;;;;;;5006148;28;20466;-68
2022/02/22 00:32:52;;;;;;;20.43;3.93;;;;;;;;;;5009135;28;20022;-68
2022/02/22 00:35:17;;;;;;;19.07;2.57;;;;;;;;;;5014165;28;20478;-68
2022/02/22 00:37:42;;;;;;;12.10;2.17;;;;;;;;;;5009503;28;20030;-68
2022/02/22 00:40:09;;;;;;;13.43;2.20;;;;;;;;;;5010656;28;20809;-68
2022/02/22 00:42:34;;;;;;;15.33;2.77;;;;;;;;;;5004937;28;20033;-68
2022/02/22 00:44:59;;;;;;;13.70;2.40;;;;;;;;;;5007305;28;20056;-68
2022/02/22 00:47:25;;;;;;;25.33;3.73;;;;;;;;;;5014508;28;20021;-68
2022/02/22 00:49:51;;;;;;;12.10;2.73;;;;;;;;;;5011899;28;20502;-68
2022/02/22 00:52:16;;;;;;;17.73;3.00;;;;;;;;;;5013965;28;20025;-68
2022/02/22 00:54:42;;;;;;;13.17;2.93;;;;;;;;;;5010671;28;20156;-68
2022/02/22 00:57:07;;;;;;;19.70;3.37;;;;;;;;;;5010275;28;20053;-68
2022/02/22 00:59:32;;;;;;;16.40;2.60;;;;;;;;;;5011379;28;20053;-68
2022/02/22 01:01:57;;;;;;;9.37;1.97;;;;;;;;;;5011638;28;20029;-68
2022/02/22 01:04:24;;;;;;;12.43;2.63;;;;;;;;;;5011074;28;20049;-68
2022/02/22 01:06:49;;;;;;;8.40;2.47;;;;;;;;;;5013020;28;20017;-68
2022/02/22 01:09:15;;;;;;;14.00;3.53;;;;;;;;;;5017042;28;20022;-68
2022/02/22 01:11:41;;;;;;;14.40;2.97;;;;;;;;;;5017394;28;20030;-68
2022/02/22 01:14:06;;;;;;;8.50;1.80;;;;;;;;;;5011196;28;20057;-68
2022/02/22 01:16:31;;;;;;;17.80;2.67;;;;;;;;;;5012870;28;20394;-68
2022/02/22 01:18:57;;;;;;;13.83;2.27;;;;;;;;;;5009947;28;20037;-68
2022/02/22 01:21:22;;;;;;;10.63;2.10;;;;;;;;;;5009012;28;20037;-68
2022/02/22 01:23:47;;;;;;;10.90;2.13;;;;;;;;;;5011185;28;20022;-68
2022/02/22 01:26:12;;;;;;;15.40;3.87;;;;;;;;;;5011052;28;20067;-68
2022/02/22 01:28:38;;;;;;;20.47;3.93;;;;;;;;;;5013237;28;20034;-68
2022/02/22 01:31:03;;;;;;;13.40;2.30;;;;;;;;;;5013381;28;20687;-67
2022/02/22 01:33:28;;;;;;;10.33;2.60;;;;;;;;;;5013343;28;20216;-67
2022/02/22 01:35:53;;;;;;;11.60;1.97;;;;;;;;;;5013048;28;20087;-67
2022/02/22 01:38:19;;;;;;;11.23;2.27;;;;;;;;;;5009850;28;20033;-67
2022/02/22 01:40:44;;;;;;;8.90;1.70;;;;;;;;;;5011633;28;20109;-67
2022/02/22 01:43:09;;;;;;;21.67;3.63;;;;;;;;;;5012386;28;20155;-67
2022/02/22 01:45:36;;;;;;;10.40;2.10;;;;;;;;;;5007593;28;20026;-67
2022/02/22 01:48:02;;;;;;;24.13;2.90;;;;;;;;;;5014919;28;20025;-67
2022/02/22 01:50:27;;;;;;;20.33;4.30;;;;;;;;;;5017413;28;20018;-67
2022/02/22 01:52:52;;;;;;;19.07;3.60;;;;;;;;;;5018374;28;20032;-67
2022/02/22 01:55:18;;;;;;;11.63;2.80;;;;;;;;;;5018395;28;20037;-67
2022/02/22 01:57:43;;;;;;;19.23;2.90;;;;;;;;;;5019231;28;20036;-67
2022/02/22 02:00:10;;;;;;;23.37;3.93;;;;;;;;;;5020209;28;20071;-67
2022/02/22 02:02:35;;;;;;;20.77;4.43;;;;;;;;;;5026741;22;20130;-73
2022/02/22 02:05:01;;;;;;;20.47;3.37;;;;;;;;;;5041763;28;20032;-73
2022/02/22 02:07:26;;;;;;;15.13;2.93;;;;;;;;;;5048665;28;20488;-73
2022/02/22 02:09:51;;;;;;;14.30;2.63;;;;;;;;;;5045588;28;20036;-73
2022/02/22 02:12:17;;;;;;;15.60;2.90;;;;;;;;;;5042885;28;20028;-73
2022/02/22 02:14:42;;;;;;;20.83;3.60;;;;;;;;;;5041566;28;20085;-73
2022/02/22 02:17:07;;;;;;;18.20;3.10;;;;;;;;;;5049681;28;20028;-73
2022/02/22 02:19:32;;;;;;;24.30;3.90;;;;;;;;;;5044275;28;20037;-73
2022/02/22 02:21:58;;;;;;;11.70;2.73;;;;;;;;;;5053030;28;20051;-73
2022/02/22 02:24:24;;;;;;;8.13;1.70;;;;;;;;;;5043135;28;20617;-72
2022/02/22 02:26:51;;;;;;;11.17;2.47;;;;;;;;;;5042389;28;20031;-72
2022/02/22 02:29:17;;;;;;;12.03;2.50;;;;;;;;;;5051147;28;20016;-73
2022/02/22 02:31:44;;;;;;;22.53;3.57;;;;;;;;;;5043391;28;20051;-72
2022/02/22 02:34:11;;;;;;;17.17;3.07;;;;;;;;;;5049611;28;20048;-72
2022/02/22 02:36:37;;;;;;;15.43;3.03;;;;;;;;;;5044023;28;20029;-72
2022/02/22 02:39:04;;;;;;;19.90;3.10;;;;;;;;;;5041969;28;20439;-72
2022/02/22 02:41:29;;;;;;;14.00;2.27;;;;;;;;;;5042745;28;20075;-72
2022/02/22 02:44:01;;;;;;;21.23;3.03;;;;;;;;;;5042962;28;20045;-72
2022/02/22 02:46:27;;;;;;;26.27;3.87;;;;;;;;;;5042043;28;20024;-72
2022/02/22 02:48:54;;;;;;;16.93;2.67;;;;;;;;;;5042655;28;20104;-72
2022/02/22 02:51:19;;;;;;;21.87;2.97;;;;;;;;;;5045640;28;20029;-72
2022/02/22 02:53:45;;;;;;;14.50;2.80;;;;;;;;;;5050111;28;20575;-72
2022/02/22 02:56:10;;;;;;;17.80;2.10;;;;;;;;;;5053613;28;20059;-72
2022/02/22 02:58:35;;;;;;;12.20;2.00;;;;;;;;;;5041728;28;20029;-72
2022/02/22 03:01:00;;;;;;;14.13;3.97;;;;;;;;;;5041935;28;20052;-73
2022/02/22 03:03:26;;;;;;;20.30;3.63;;;;;;;;;;5032885;28;20564;-73
2022/02/22 03:05:51;;;;;;;16.90;3.00;;;;;;;;;;5041816;28;20112;-73
2022/02/22 03:08:16;;;;;;;16.40;2.73;;;;;;;;;;5041861;28;20037;-73
2022/02/22 03:10:41;;;;;;;14.57;3.00;;;;;;;;;;5041163;28;20039;-72
2022/02/22 03:13:08;;;;;;;19.97;3.10;;;;;;;;;;5035104;28;20338;-73
2022/02/22 03:15:34;;;;;;;20.43;3.33;;;;;;;;;;5038735;28;20043;-73
2022/02/22 03:17:59;;;;;;;14.83;2.47;;;;;;;;;;5041328;28;20044;-73
2022/02/22 03:20:24;;;;;;;16.17;2.70;;;;;;;;;;5041936;28;20040;-73
2022/02/22 03:22:53;;;;;;;17.67;4.10;;;;;;;;;;5038600;28;20037;-72
2022/02/22 03:25:18;;;;;;;16.63;3.13;;;;;;;;;;5041487;28;20664;-73
2022/02/22 03:27:44;;;;;;;10.43;2.10;;;;;;;;;;5040955;28;20024;-73
2022/02/22 03:30:46;;;;;;;24.30;2.73;;;;;;;;;;5041118;28;20028;-73
2022/02/22 03:33:11;;;;;;;;;;;;;;;;;;5041132;28;20021;-73
2022/02/22 03:35:37;;;;;;;28.52;3.47;;;;;;;;;;5041108;28;19958;-73
2022/02/22 03:38:03;;;;;;;18.07;3.03;;;;;;;;;;5040923;28;20044;-73
2022/02/22 03:40:28;;;;;;;17.33;4.97;;;;;;;;;;5044613;28;20444;-72
2022/02/22 03:42:53;;;;;;;10.70;2.00;;;;;;;;;;5041512;28;20077;-72
2022/02/22 03:45:19;;;;;;;22.00;2.90;;;;;;;;;;5045275;28;20021;-72
2022/02/22 03:47:44;;;;;;;14.27;3.10;;;;;;;;;;5045490;28;20045;-72
2022/02/22 03:50:10;;;;;;;18.67;4.13;;;;;;;;;;5046363;28;20040;-72
2022/02/22 03:52:36;;;;;;;14.60;2.73;;;;;;;;;;5035019;28;20552;-72
2022/02/22 03:55:03;;;;;;;16.23;2.03;;;;;;;;;;5047663;28;20040;-72
2022/02/22 03:57:28;;;;;;;20.77;4.63;;;;;;;;;;5046185;28;20031;-72
2022/02/22 03:59:53;;;;;;;12.33;2.57;;;;;;;;;;5044736;28;20108;-72
2022/02/22 04:02:18;;;;;;;17.87;2.63;;;;;;;;;;5045140;28;20087;-73
2022/02/22 04:04:44;;;;;;;25.00;5.00;;;;;;;;;;5043887;28;20025;-73
2022/02/22 04:07:09;;;;;;;19.60;3.00;;;;;;;;;;5041353;28;20385;-73
2022/02/22 04:09:34;;;;;;;16.43;3.27;;;;;;;;;;5043436;28;20025;-73
2022/02/22 04:12:00;;;;;;;13.30;3.20;;;;;;;;;;5043697;28;20063;-73
2022/02/22 04:14:25;;;;;;;18.23;2.60;;;;;;;;;;5032244;28;20448;-72
2022/02/22 04:16:50;;;;;;;19.10;3.53;;;;;;;;;;5045024;28;20095;-73
2022/02/22 04:19:16;;;;;;;25.70;5.03;;;;;;;;;;5036088;28;20017;-72
2022/02/22 04:21:41;;;;;;;21.40;4.63;;;;;;;;;;5044989;28;20035;-73
2022/02/22 04:24:07;;;;;;;16.87;2.50;;;;;;;;;;5044623;28;20027;-72
2022/02/22 04:26:32;;;;;;;23.03;3.57;;;;;;;;;;5048573;28;20021;-72
2022/02/22 04:29:00;;;;;;;15.93;2.40;;;;;;;;;;5042092;28;20091;-72
2022/02/22 04:31:29;;;;;;;15.00;3.17;;;;;;;;;;5045462;28;20457;-73
2022/02/22 04:33:54;;;;;;;18.63;3.10;;;;;;;;;;5046166;28;20583;-72
2022/02/22 04:36:19;;;;;;;18.77;3.57;;;;;;;;;;5047215;28;20036;-73
2022/02/22 04:38:45;;;;;;;17.87;3.73;;;;;;;;;;5043620;28;20086;-72
2022/02/22 04:41:10;;;;;;;19.40;3.90;;;;;;;;;;5047427;28;20033;-72
2022/02/22 04:43:35;;;;;;;15.03;3.10;;;;;;;;;;5045329;28;20071;-72
2022/02/22 04:46:01;;;;;;;17.23;3.30;;;;;;;;;;5048349;28;20032;-72
2022/02/22 04:48:26;;;;;;;26.40;4.13;;;;;;;;;;5039688;28;20032;-73
2022/02/22 04:50:51;;;;;;;18.30;3.87;;;;;;;;;;5037423;28;20029;-72
2022/02/22 04:53:17;;;;;;;26.90;5.03;;;;;;;;;;5045524;28;20060;-72
2022/02/22 04:55:42;;;;;;;28.53;4.13;;;;;;;;;;5047241;28;20044;-72
2022/02/22 04:58:07;;;;;;;17.03;3.13;;;;;;;;;;5040622;28;20104;-73
2022/02/22 05:00:32;;;;;;;20.83;3.43;;;;;;;;;;5040081;28;20555;-72
2022/02/22 05:02:58;;;;;;;17.37;3.67;;;;;;;;;;5046113;28;20437;-72
2022/02/22 05:05:23;;;;;;;15.10;2.87;;;;;;;;;;5047825;28;20025;-72
2022/02/22 05:07:48;;;;;;;22.93;3.60;;;;;;;;;;5042606;28;20021;-72
2022/02/22 05:10:13;;;;;;;19.67;3.60;;;;;;;;;;5041421;28;20099;-72
2022/02/22 05:12:39;;;;;;;13.30;3.07;;;;;;;;;;5046752;28;20047;-72
2022/02/22 05:15:05;;;;;;;21.30;3.90;;;;;;;;;;5046468;28;20033;-71
2022/02/22 05:17:30;;;;;;;18.90;4.03;;;;;;;;;;5045638;28;20064;-71
2022/02/22 05:19:55;;;;;;;22.57;4.43;;;;;;;;;;5048473;28;20029;-71
2022/02/22 05:22:21;;;;;;;15.50;3.67;;;;;;;;;;5047465;28;20032;-71
2022/02/22 05:24:46;;;;;;;19.20;3.87;;;;;;;;;;5045528;28;20033;-71
2022/02/22 05:27:11;;;;;;;14.43;3.37;;;;;;;;;;5047885;28;20031;-71
2022/02/22 05:29:36;;;;;;;17.90;2.77;;;;;;;;;;5046819;28;20021;-72
2022/02/22 05:32:02;;;;;;;17.57;4.50;;;;;;;;;;5046375;28;20049;-71
2022/02/22 05:34:30;;;;;;;16.33;3.50;;;;;;;;;;5045739;28;20013;-71
2022/02/22 05:36:57;;;;;;;14.67;3.20;;;;;;;;;;5047503;28;20459;-72
2022/02/22 05:39:22;;;;;;;28.17;2.77;;;;;;;;;;5035926;28;20462;-72
2022/02/22 05:41:47;;;;;;;26.27;4.60;;;;;;;;;;5047028;28;20124;-72
2022/02/22 05:44:13;;;;;;;23.03;4.37;;;;;;;;;;5042754;28;20464;-71
2022/02/22 05:46:38;;;;;;;19.07;3.27;;;;;;;;;;5047422;28;20078;-72
2022/02/22 05:49:03;;;;;;;21.37;3.50;;;;;;;;;;5042986;28;20459;-72
2022/02/22 05:51:28;;;;;;;11.90;2.40;;;;;;;;;;5045861;28;20029;-72
2022/02/22 05:53:54;;;;;;;16.77;2.43;;;;;;;;;;5044774;28;20059;-72
2022/02/22 05:56:19;;;;;;;29.97;3.87;;;;;;;;;;5045886;28;20060;-71
2022/02/22 05:58:44;;;;;;;26.70;3.93;;;;;;;;;;5046700;28;20431;-71
2022/02/22 06:01:10;;;;;;;21.37;4.27;;;;;;;;;;5046074;28;20060;-72
2022/02/22 06:03:35;;;;;;;17.17;3.77;;;;;;;;;;5040070;28;20068;-71
2022/02/22 06:06:00;;;;;;;22.50;3.93;;;;;;;;;;5046310;28;20067;-71
2022/02/22 06:08:27;;;;;;;11.87;2.97;;;;;;;;;;5044799;28;20477;-71
2022/02/22 06:10:52;;;;;;;15.63;3.73;;;;;;;;;;5045327;28;20028;-71
2022/02/22 06:13:18;;;;;;;16.50;2.87;;;;;;;;;;5045818;28;20746;-71
2022/02/22 06:15:43;;;;;;;23.33;2.77;;;;;;;;;;5048745;28;20037;-71
2022/02/22 06:18:08;;;;;;;18.77;3.30;;;;;;;;;;5046811;28;20021;-71
2022/02/22 06:20:35;;;;;;;21.23;4.23;;;;;;;;;;5047817;28;20035;-71
2022/02/22 06:23:01;;;;;;;16.77;3.17;;;;;;;;;;5046332;28;20133;-72
2022/02/22 06:25:26;;;;;;;12.63;2.23;;;;;;;;;;5047796;28;20092;-72
2022/02/22 06:27:53;;;;;;;16.20;3.07;;;;;;;;;;5039525;28;20026;-71
2022/02/22 06:30:19;;;;;;;18.03;3.00;;;;;;;;;;5044257;28;20048;-72
2022/02/22 06:32:44;;;;;;;11.97;2.50;;;;;;;;;;5046320;28;20028;-72
2022/02/22 06:35:09;;;;;;;10.97;2.43;;;;;;;;;;5047748;28;20094;-72
2022/02/22 06:37:35;;;;;;;16.70;2.20;;;;;;;;;;5047494;28;20573;-72
2022/02/22 06:40:00;;;;;;;19.00;3.20;;;;;;;;;;5047272;28;20021;-72
2022/02/22 06:42:26;;;;;;;19.33;3.67;;;;;;;;;;5045989;28;20020;-72
2022/02/22 06:44:51;;;;;;;19.47;3.13;;;;;;;;;;5049667;28;20056;-72
2022/02/22 06:47:16;;;;;;;9.20;2.47;;;;;;;;;;5046662;28;20021;-72
2022/02/22 06:49:42;;;;;;;20.47;3.23;;;;;;;;;;5038523;28;20031;-72
2022/02/22 06:52:07;;;;;;;12.70;3.40;;;;;;;;;;5047411;28;20593;-72
2022/02/22 06:54:32;;;;;;;16.03;4.30;;;;;;;;;;5047551;28;20354;-72
2022/02/22 06:56:57;;;;;;;14.10;2.67;;;;;;;;;;5048150;28;20020;-72
2022/02/22 06:59:23;;;;;;;20.80;3.63;;;;;;;;;;5045506;28;20032;-72
2022/02/22 07:01:48;;;;;;;14.97;2.83;;;;;;;;;;5047740;28;20029;-72
2022/02/22 07:04:13;;;;;;;17.33;3.80;;;;;;;;;;5034501;28;20031;-72
2022/02/22 07:06:39;;;;;;;22.27;2.53;;;;;;;;;;5045631;28;20055;-72
2022/02/22 07:09:06;;;;;;;15.23;3.10;;;;;;;;;;5049110;28;20041;-72
2022/02/22 07:11:31;;;;;;;17.63;4.67;;;;;;;;;;5047002;28;20025;-72
2022/02/22 07:13:56;;;;;;;22.70;4.33;;;;;;;;;;5044479;28;20029;-73
2022/02/22 07:16:22;;;;;;;13.60;2.93;;;;;;;;;;5043604;28;20017;-73
2022/02/22 07:18:47;;;;;;;13.20;2.03;;;;;;;;;;5044529;28;20016;-72
2022/02/22 07:21:12;;;;;;;17.63;2.47;;;;;;;;;;5045631;28;20397;-73
2022/02/22 07:23:37;;;;;;;14.70;2.53;;;;;;;;;;5040817;28;20112;-72
2022/02/22 07:26:03;;;;;;;13.60;2.83;;;;;;;;;;5047278;28;20028;-72
2022/02/22 07:28:28;;;;;;;11.47;2.80;;;;;;;;;;5043799;28;20022;-72
2022/02/22 07:30:53;;;;;;;17.60;3.70;;;;;;;;;;5038555;28;20480;-72
2022/02/22 07:33:18;;;;;;;21.63;3.90;;;;;;;;;;5046536;28;20020;-72
2022/02/22 07:35:44;;;;;;;20.53;3.20;;;;;;;;;;5047395;28;20382;-72
2022/02/22 07:38:09;;;;;;;25.73;4.83;;;;;;;;;;5045538;28;20033;-72
2022/02/22 07:40:34;;;;;;;21.40;3.60;;;;;;;;;;5047732;28;20484;-72
2022/02/22 07:43:00;;;;;;;17.60;2.93;;;;;;;;;;5044676;28;20113;-73
2022/02/22 07:45:25;;;;;;;18.70;3.97;;;;;;;;;;5036819;28;20501;-72
2022/02/22 07:47:50;;;;;;;22.03;3.20;;;;;;;;;;5043366;28;20021;-72
2022/02/22 07:50:16;;;;;;;14.57;3.07;;;;;;;;;;5027826;28;20013;-72
2022/02/22 07:52:41;;;;;;;13.10;3.37;;;;;;;;;;5045728;28;20037;-72
2022/02/22 07:55:07;;;;;;;20.67;3.83;;;;;;;;;;5046879;28;20029;-73
2022/02/22 07:57:32;;;;;;;12.80;3.20;;;;;;;;;;5033809;28;20025;-72
2022/02/22 07:59:58;;;;;;;16.70;3.70;;;;;;;;;;5039816;28;20510;-72
2022/02/22 08:02:23;;;;;;;7.33;1.77;;;;;;;;;;5046538;28;20083;-72
2022/02/22 08:04:48;;;;;;;18.37;2.63;;;;;;;;;;5029479;28;20113;-72
2022/02/22 08:07:16;;;;;;;14.33;2.53;;;;;;;;;;5033906;28;20029;-71
2022/02/22 08:09:42;;;;;;;10.93;2.90;;;;;;;;;;5045734;28;20408;-72
2022/02/22 08:12:07;;;;;;;13.13;2.80;;;;;;;;;;5046232;28;20017;-72
2022/02/22 08:14:32;;;;;;;15.13;2.67;;;;;;;;;;5036661;28;20023;-71
2022/02/22 08:17:00;;;;;;;18.50;2.80;;;;;;;;;;5046251;28;20024;-72
2022/02/22 08:19:25;;;;;;;12.40;2.33;;;;;;;;;;5044878;28;20058;-73
2022/02/22 08:21:51;;;;;;;11.67;2.07;;;;;;;;;;5046390;28;20378;-72
2022/02/22 08:24:16;;;;;;;11.80;2.20;;;;;;;;;;5038768;28;20373;-72
2022/02/22 08:26:41;;;;;;;10.60;1.63;;;;;;;;;;5045904;28;20047;-72
2022/02/22 08:29:07;;;;;;;16.47;3.30;;;;;;;;;;5039325;28;20021;-72
2022/02/22 08:31:32;;;;;;;18.50;3.83;;;;;;;;;;5036319;28;20013;-72
2022/02/22 08:33:58;;;;;;;29.83;2.30;;;;;;;;;;5039967;28;20021;-72
2022/02/22 08:36:25;;;;;;;14.03;2.83;;;;;;;;;;5037512;28;20045;-71
2022/02/22 08:38:51;;;;;;;11.00;2.10;;;;;;;;;;5040885;28;20024;-71
2022/02/22 08:41:17;;;;;;;15.67;2.07;;;;;;;;;;5043717;28;20044;-71
2022/02/22 08:43:42;;;;;;;12.53;1.73;;;;;;;;;;5038689;28;20045;-71
2022/02/22 08:46:07;;;;;;;17.37;2.17;;;;;;;;;;5045984;28;20017;-71
2022/02/22 08:48:33;;;;;;;20.23;2.70;;;;;;;;;;5042096;28;20013;-71
2022/02/22 08:50:58;;;;;;;9.13;1.70;;;;;;;;;;5043524;28;20025;-71
2022/02/22 08:53:23;;;;;;;10.90;2.20;;;;;;;;;;5043628;28;20028;-71
2022/02/22 08:55:48;;;;;;;9.67;2.03;;;;;;;;;;5043940;28;20025;-71
2022/02/22 08:58:15;;;;;;;12.87;2.00;;;;;;;;;;5043293;28;20068;-71
2022/02/22 09:00:41;;;;;;;13.27;2.83;;;;;;;;;;5043318;28;20025;-71
2022/02/22 09:03:06;;;;;;;7.47;1.70;;;;;;;;;;5033338;28;20727;-71
2022/02/22 09:05:36;;;;;;;15.23;2.63;;;;;;;;;;5043359;28;20028;-71
2022/02/22 09:08:01;;;;;;;13.87;2.83;;;;;;;;;;5039743;28;20025;-72
2022/02/22 09:10:27;;;;;;;9.67;1.50;;;;;;;;;;5043533;28;20096;-72
2022/02/22 09:12:55;;;;;;;18.87;3.00;;;;;;;;;;5044653;28;20049;-72
2022/02/22 09:15:22;;;;;;;11.13;2.30;;;;;;;;;;5044724;28;20024;-72
2022/02/22 09:17:48;;;;;;;12.30;2.53;;;;;;;;;;5045599;28;20120;-72
2022/02/22 09:20:15;;;;;;;11.27;2.23;;;;;;;;;;5045481;28;20025;-72
2022/02/22 09:22:40;;;;;;;14.63;2.30;;;;;;;;;;5047936;28;20037;-72
2022/02/22 09:25:07;;;;;;;20.20;2.73;;;;;;;;;;5035430;28;20033;-72
2022/02/22 09:27:32;;;;;;;12.70;2.40;;;;;;;;;;5047770;28;20457;-72
2022/02/22 09:29:58;;;;;;;17.27;2.10;;;;;;;;;;5044478;28;20040;-72
2022/02/22 09:32:23;;;;;;;13.03;1.90;;;;;;;;;;5048785;28;20095;-72
2022/02/22 09:34:49;;;;;;;12.33;2.47;;;;;;;;;;5044232;28;20039;-71
2022/02/22 09:37:15;;;;;;;14.33;3.50;;;;;;;;;;5047878;28;20020;-71
2022/02/22 09:39:40;;;;;;;10.10;3.00;;;;;;;;;;5047840;28;20025;-71
2022/02/22 09:42:07;;;;;;;17.70;3.50;;;;;;;;;;5048067;28;20036;-73
2022/02/22 09:44:34;;;;;;;15.40;2.57;;;;;;;;;;5048645;28;20108;-72
2022/02/22 09:47:00;;;;;;;14.70;2.60;;;;;;;;;;5048243;28;20048;-72
2022/02/22 09:49:25;;;;;;;16.23;2.40;;;;;;;;;;5046958;28;20052;-72
2022/02/22 09:51:53;;;;;;;18.27;2.93;;;;;;;;;;5042849;28;20428;-72
2022/02/22 09:54:19;;;;;;;18.83;3.47;;;;;;;;;;5032435;28;20029;-72
2022/02/22 09:56:44;;;;;;;19.97;2.33;;;;;;;;;;5047876;28;20519;-72
2022/02/22 09:59:10;;;;;;;13.90;1.97;;;;;;;;;;5044675;28;20243;-72
2022/02/22 10:01:43;;;;;;;10.43;1.87;;;;;;;;;;5036534;28;20028;-72
2022/02/22 10:04:08;;;;;;;13.40;1.80;;;;;;;;;;5044968;28;20033;-72
2022/02/22 10:06:34;;;;;;;10.90;2.37;;;;;;;;;;5038788;28;20024;-72
2022/02/22 10:08:59;;;;;;;12.93;1.67;;;;;;;;;;5045171;28;20033;-72
2022/02/22 10:11:25;;;;;;;15.83;2.70;;;;;;;;;;5039061;28;20325;-72
2022/02/22 10:13:50;;;;;;;10.60;1.80;;;;;;;;;;5047965;28;20592;-74
2022/02/22 10:16:18;;;;;;;12.63;2.10;;;;;;;;;;5038730;28;20086;-72
2022/02/22 10:18:47;;;;;;;16.07;1.77;;;;;;;;;;5038051;28;20029;-73
2022/02/22 10:21:12;;;;;;;7.93;2.20;;;;;;;;;;5048961;28;20025;-72
2022/02/22 10:23:38;;;;;;;7.60;1.83;;;;;;;;;;5047870;28;20536;-73
2022/02/22 10:26:03;;;;;;;10.87;1.77;;;;;;;;;;5037782;28;20478;-72
2022/02/22 10:28:28;;;;;;;12.80;2.50;;;;;;;;;;5044861;28;20033;-73
2022/02/22 10:30:54;;;;;;;13.13;2.10;;;;;;;;;;5049302;28;20044;-72
2022/02/22 10:33:26;;;;;;;13.87;2.83;;;;;;;;;;5043364;28;20021;-72
2022/02/22 10:35:52;;;;;;;9.27;2.00;;;;;;;;;;5047076;28;20448;-72
2022/02/22 10:38:23;;;;;;;14.27;2.07;;;;;;;;;;5043885;28;20029;-72
2022/02/22 10:41:06;;;;;;;19.20;3.17;;;;;;;;;;5047716;28;20071;-72
2022/02/22 10:43:36;;;;;;;7.20;1.60;;;;;;;;;;5044459;28;20037;-72
2022/02/22 10:46:05;;;;;;;13.73;3.17;;;;;;;;;;5047109;28;20033;-72
2022/02/22 10:48:32;;;;;;;6.10;1.73;;;;;;;;;;5039961;28;20091;-73
2022/02/22 10:50:58;;;;;;;10.37;2.43;;;;;;;;;;5041094;28;20017;-72
2022/02/22 10:53:29;;;;;;;12.90;2.10;;;;;;;;;;5045913;28;20028;-73
2022/02/22 10:55:55;;;;;;;16.63;1.70;;;;;;;;;;5046216;28;20055;-72
2022/02/22 10:58:21;;;;;;;9.40;1.57;;;;;;;;;;5039246;28;20025;-73
2022/02/22 11:00:46;;;;;;;10.83;2.70;;;;;;;;;;5043408;28;20617;-73
2022/02/22 11:03:12;;;;;;;12.10;2.03;;;;;;;;;;5048361;28;20049;-73
2022/02/22 11:05:37;;;;;;;15.40;2.07;;;;;;;;;;5047618;28;20024;-73
2022/02/22 11:08:03;;;;;;;12.53;1.97;;;;;;;;;;5047736;28;20025;-73
2022/02/22 11:10:29;;;;;;;6.20;1.27;;;;;;;;;;5047551;28;20591;-72
2022/02/22 11:12:59;;;;;;;11.77;3.17;;;;;;;;;;5046817;28;20024;-72
2022/02/22 11:15:35;;;;;;;10.90;1.97;;;;;;;;;;5048905;28;20052;-73
2022/02/22 11:18:06;;;;;;;8.13;1.77;;;;;;;;;;5048456;28;20028;-73
2022/02/22 11:20:33;;;;;;;12.23;2.30;;;;;;;;;;5046697;28;20043;-73
2022/02/22 11:22:59;;;;;;;8.60;2.03;;;;;;;;;;5047645;28;20055;-73
2022/02/22 11:25:30;;;;;;;7.50;1.80;;;;;;;;;;5047891;28;20013;-73
2022/02/22 11:28:11;;;;;;;9.25;1.80;;;;;;;;;;5046863;28;20108;-73
2022/02/22 11:30:38;;;;;;;7.43;1.95;;;;;;;;;;5045646;28;20039;-72
2022/02/22 11:33:08;;;;;;;13.67;2.03;;;;;;;;;;5042250;28;20099;-71
2022/02/22 11:35:54;;;;;;;9.50;2.57;;;;;;;;;;5046675;28;20074;-72
2022/02/22 11:38:20;;;;;;;8.73;1.97;;;;;;;;;;5046792;28;20049;-73
2022/02/22 11:40:48;;;;;;;9.77;2.20;;;;;;;;;;5047789;28;20605;-72
2022/02/22 11:43:15;;;;;;;13.83;2.20;;;;;;;;;;5040154;28;20040;-72
2022/02/22 11:45:42;;;;;;;12.43;2.20;;;;;;;;;;5027912;28;20021;-72
2022/02/22 11:48:20;;;;;;;12.37;2.33;;;;;;;;;;5042791;28;20063;-73
2022/02/22 11:50:46;;;;;;;10.43;2.73;;;;;;;;;;5044040;28;20508;-73
2022/02/22 11:53:13;;;;;;;9.60;2.40;;;;;;;;;;5040920;28;20029;-73
2022/02/22 11:55:39;;;;;;;7.47;1.60;;;;;;;;;;5046831;28;20069;-73
2022/02/22 11:58:12;;;;;;;10.97;2.13;;;;;;;;;;5030290;28;20033;-73
2022/02/22 12:00:37;;;;;;;16.17;2.20;;;;;;;;;;5041750;28;20024;-73
2022/02/22 12:03:13;;;;;;;8.73;2.30;;;;;;;;;;5046689;28;20045;-73
2022/02/22 12:05:43;;;;;;;20.83;2.57;;;;;;;;;;5048315;28;20103;-73
2022/02/22 12:08:15;;;;;;;7.90;1.90;;;;;;;;;;5040831;28;20079;-73
2022/02/22 12:10:44;;;;;;;8.98;1.88;;;;;;;;;;5044544;28;20507;-73
2022/02/22 12:13:12;;;;;;;8.83;1.93;;;;;;;;;;5044092;28;20025;-73
2022/02/22 12:15:39;;;;;;;13.30;2.63;;;;;;;;;;5047482;28;20439;-73
2022/02/22 12:18:05;;;;;;;11.33;2.07;;;;;;;;;;5043386;28;20017;-73
2022/02/22 12:20:31;;;;;;;12.00;2.07;;;;;;;;;;5047779;28;20013;-73
2022/02/22 12:22:57;;;;;;;11.17;1.77;;;;;;;;;;5047108;28;20036;-73
2022/02/22 12:25:24;;;;;;;16.93;2.17;;;;;;;;;;5046441;28;20021;-73
2022/02/22 12:27:58;;;;;;;10.50;2.30;;;;;;;;;;5042728;28;20032;-73
2022/02/22 12:30:49;;;;;;;6.87;1.97;;;;;;;;;;5033617;28;20009;-73
2022/02/22 12:33:17;;;;;;;18.17;1.85;;;;;;;;;;5035967;28;20030;-73
2022/02/22 12:35:43;;;;;;;14.57;2.80;;;;;;;;;;5044799;28;20361;-73
2022/02/22 12:38:12;;;;;;;16.73;2.40;;;;;;;;;;5042900;28;20052;-73
2022/02/22 12:40:38;;;;;;;9.20;2.10;;;;;;;;;;5039137;28;20035;-73
2022/02/22 12:43:07;;;;;;;12.87;2.50;;;;;;;;;;5040414;28;20025;-73
2022/02/22 12:45:46;;;;;;;13.20;2.23;;;;;;;;;;5050902;28;20481;-74
2022/02/22 12:48:13;;;;;;;10.13;2.20;;;;;;;;;;5049048;28;20032;-73
2022/02/22 12:50:39;;;;;;;13.80;2.00;;;;;;;;;;5052279;28;20024;-74
2022/02/22 12:53:04;;;;;;;13.37;3.67;;;;;;;;;;5052460;28;20473;-73
2022/02/22 12:55:30;;;;;;;8.80;1.93;;;;;;;;;;5051133;28;20138;-74
2022/02/22 12:58:08;;;;;;;15.53;2.67;;;;;;;;;;5047814;28;20063;-73
2022/02/22 13:00:33;;;;;;;11.20;2.00;;;;;;;;;;5050734;28;20021;-73
2022/02/22 13:03:08;;;;;;;9.67;1.87;;;;;;;;;;5047043;28;20040;-73
2022/02/22 13:05:36;;;;;;;13.27;2.20;;;;;;;;;;5035404;28;20026;-73
2022/02/22 13:08:01;;;;;;;13.23;2.30;;;;;;;;;;5051431;28;20532;-73
2022/02/22 13:10:27;;;;;;;10.57;2.43;;;;;;;;;;5051624;28;20017;-73
2022/02/22 13:12:59;;;;;;;8.73;2.50;;;;;;;;;;5050859;28;20162;-73
2022/02/22 13:15:24;;;;;;;8.90;1.77;;;;;;;;;;5051489;28;20021;-74
2022/02/22 13:17:53;;;;;;;13.03;2.40;;;;;;;;;;5051863;28;20025;-74
2022/02/22 13:20:19;;;;;;;13.17;3.00;;;;;;;;;;5051439;28;20025;-74
2022/02/22 13:22:44;;;;;;;10.83;2.73;;;;;;;;;;5047680;28;20061;-74
2022/02/22 13:25:17;;;;;;;8.43;2.37;;;;;;;;;;5048488;28;20138;-75
2022/02/22 13:27:43;;;;;;;12.07;3.00;;;;;;;;;;5047357;28;20112;-74
2022/02/22 13:30:09;;;;;;;11.10;2.50;;;;;;;;;;5047467;28;20036;-74
2022/02/22 13:32:35;;;;;;;8.73;2.83;;;;;;;;;;5049037;28;20029;-75
2022/02/22 13:35:01;;;;;;;19.67;3.20;;;;;;;;;;5044882;28;20099;-74
2022/02/22 13:37:27;;;;;;;10.10;3.67;;;;;;;;;;5044456;28;20020;-75
2022/02/22 13:40:06;;;;;;;12.93;2.70;;;;;;;;;;5043315;28;20108;-75
2022/02/22 13:42:32;;;;;;;13.07;3.03;;;;;;;;;;5044325;28;20087;-74
2022/02/22 13:44:59;;;;;;;12.13;3.03;;;;;;;;;;5044091;28;20025;-74
2022/02/22 13:47:28;;;;;;;10.33;3.23;;;;;;;;;;5043767;28;20053;-74
2022/02/22 13:49:54;;;;;;;12.77;2.43;;;;;;;;;;5043555;28;20496;-73
2022/02/22 13:52:19;;;;;;;7.90;2.70;;;;;;;;;;5043592;28;20021;-74
2022/02/22 13:54:48;;;;;;;12.47;3.63;;;;;;;;;;5037558;28;20039;-72
2022/02/22 13:57:15;;;;;;;15.00;3.23;;;;;;;;;;5036490;28;20088;-72
2022/02/22 13:59:41;;;;;;;11.23;3.73;;;;;;;;;;5043987;28;20073;-74
2022/02/22 14:02:08;;;;;;;12.60;3.70;;;;;;;;;;5043902;28;20048;-73
2022/02/22 14:04:33;;;;;;;11.17;3.90;;;;;;;;;;5039604;28;20381;-74
2022/02/22 14:07:03;;;;;;;14.37;3.47;;;;;;;;;;5044358;28;20035;-73
2022/02/22 14:09:28;;;;;;;6.03;2.80;;;;;;;;;;5033606;28;20677;-73
2022/02/22 14:11:54;;;;;;;5.57;2.33;;;;;;;;;;5043580;28;20100;-73
2022/02/22 14:14:19;;;;;;;11.23;3.47;;;;;;;;;;5043304;28;20116;-73
2022/02/22 14:16:45;;;;;;;14.67;3.13;;;;;;;;;;5043775;28;20017;-73
2022/02/22 14:19:11;;;;;;;12.13;2.93;;;;;;;;;;5043869;28;20033;-73
2022/02/22 14:21:36;;;;;;;10.43;2.97;;;;;;;;;;5043867;28;20465;-75
2022/02/22 14:24:02;;;;;;;13.97;4.17;;;;;;;;;;5036848;28;20125;-73
2022/02/22 14:26:27;;;;;;;15.43;4.07;;;;;;;;;;5044195;28;20070;-73